createdAt,value
2023-05-21T00:00:28.964Z,11.26
2023-05-21T00:03:14.340Z,11.07
2023-05-21T00:06:01.529Z,11.04
2023-05-21T00:08:46.882Z,11.07
2023-05-21T00:11:32.782Z,10.94
2023-05-21T00:14:17.692Z,10.88
2023-05-21T00:17:03.081Z,10.93
2023-05-21T00:19:50.077Z,10.93
2023-05-21T00:22:36.273Z,10.91
2023-05-21T00:25:21.724Z,10.92
2023-05-21T00:28:06.591Z,10.97
2023-05-21T00:30:51.797Z,11.01
2023-05-21T00:33:37.333Z,11.01
2023-05-21T00:36:24.035Z,10.99
2023-05-21T00:39:09.260Z,10.88
2023-05-21T00:41:56.810Z,10.83
2023-05-21T00:44:42.002Z,10.90
2023-05-21T00:47:29.583Z,10.89
2023-05-21T00:50:15.471Z,10.89
2023-05-21T00:53:00.608Z,10.85
2023-05-21T00:55:46.767Z,10.84
2023-05-21T00:58:33.412Z,10.83
2023-05-21T01:01:19.364Z,10.80
2023-05-21T01:04:05.223Z,10.77
2023-05-21T01:06:50.137Z,10.77
2023-05-21T01:09:35.480Z,10.76
2023-05-21T01:12:21.232Z,10.72
2023-05-21T01:15:07.251Z,10.73
2023-05-21T01:17:53.167Z,10.76
2023-05-21T01:20:39.184Z,10.69
2023-05-21T01:23:24.281Z,10.62
2023-05-21T01:26:12.792Z,10.66
2023-05-21T01:28:57.577Z,10.68
2023-05-21T01:31:52.951Z,10.58
2023-05-21T01:34:47.726Z,10.57
2023-05-21T01:37:47.223Z,10.57
2023-05-21T01:40:58.674Z,10.52
2023-05-21T01:43:45.636Z,10.48
2023-05-21T01:46:33.353Z,10.33
2023-05-21T01:49:19.609Z,10.44
2023-05-21T01:52:05.324Z,10.42
2023-05-21T01:54:51.391Z,10.37
2023-05-21T01:57:36.277Z,10.29
2023-05-21T02:00:23.468Z,10.26
2023-05-21T02:03:09.050Z,10.33
2023-05-21T02:05:55.719Z,10.31
2023-05-21T02:08:41.093Z,10.28
2023-05-21T02:11:26.770Z,10.23
2023-05-21T02:14:13.987Z,10.21
2023-05-21T02:17:00.750Z,10.08
2023-05-21T02:19:46.031Z,10.16
2023-05-21T02:22:31.305Z,10.22
2023-05-21T02:25:19.587Z,10.19
2023-05-21T02:28:04.769Z,10.18
2023-05-21T02:30:49.893Z,10.18
2023-05-21T02:33:34.784Z,10.16
2023-05-21T02:36:19.821Z,10.16
2023-05-21T02:39:04.690Z,10.06
2023-05-21T02:41:49.773Z,10.12
2023-05-21T02:44:34.742Z,9.97
2023-05-21T02:47:20.788Z,10.08
2023-05-21T02:50:09.307Z,10.06
2023-05-21T02:52:54.772Z,10.06
2023-05-21T02:55:39.744Z,10.06
2023-05-21T02:58:25.269Z,10.03
2023-05-21T03:01:10.488Z,9.96
2023-05-21T03:03:55.699Z,10.02
2023-05-21T03:06:40.990Z,9.96
2023-05-21T03:09:26.186Z,9.92
2023-05-21T03:12:11.306Z,9.96
2023-05-21T03:14:56.435Z,9.90
2023-05-21T03:17:42.374Z,9.89
2023-05-21T03:20:28.836Z,9.87
2023-05-21T03:23:16.608Z,9.84
2023-05-21T03:26:02.333Z,9.81
2023-05-21T03:28:47.298Z,9.72
2023-05-21T03:31:32.506Z,9.66
2023-05-21T03:34:20.035Z,9.62
2023-05-21T03:37:05.188Z,9.64
2023-05-21T03:39:50.830Z,9.66
2023-05-21T03:42:35.857Z,9.66
2023-05-21T03:45:21.089Z,9.67
2023-05-21T03:48:06.525Z,9.66
2023-05-21T03:50:51.742Z,9.63
2023-05-21T03:53:37.074Z,9.66
2023-05-21T03:56:22.992Z,9.61
2023-05-21T03:59:08.177Z,9.53
2023-05-21T04:01:52.947Z,9.40
2023-05-21T04:04:38.000Z,9.33
2023-05-21T04:07:22.937Z,9.37
2023-05-21T04:10:08.660Z,9.41
2023-05-21T04:12:53.650Z,9.47
2023-05-21T04:15:38.897Z,9.42
2023-05-21T04:18:26.129Z,9.34
2023-05-21T04:21:11.355Z,9.28
2023-05-21T04:23:57.563Z,9.34
2023-05-21T04:26:43.300Z,9.32
2023-05-21T04:29:29.849Z,9.44
2023-05-21T04:32:15.220Z,9.41
2023-05-21T04:35:01.112Z,9.34
2023-05-21T04:37:46.308Z,9.31
2023-05-21T04:40:31.531Z,9.36
2023-05-21T04:43:17.125Z,9.44
2023-05-21T04:46:02.327Z,9.37
2023-05-21T04:48:47.452Z,9.47
2023-05-21T04:51:32.470Z,9.49
2023-05-21T04:54:17.759Z,9.54
2023-05-21T04:57:02.977Z,9.55
2023-05-21T04:59:49.152Z,9.57
2023-05-21T05:02:34.353Z,9.68
2023-05-21T05:05:19.527Z,9.63
2023-05-21T05:08:05.158Z,9.63
2023-05-21T05:10:49.933Z,9.77
2023-05-21T05:13:35.157Z,9.70
2023-05-21T05:16:25.749Z,9.83
2023-05-21T05:19:10.761Z,9.87
2023-05-21T05:21:56.277Z,9.96
2023-05-21T05:24:41.112Z,10.04
2023-05-21T05:27:26.176Z,10.07
2023-05-21T05:30:11.550Z,10.21
2023-05-21T05:32:56.647Z,10.30
2023-05-21T05:35:41.893Z,10.37
2023-05-21T05:38:26.985Z,10.38
2023-05-21T05:41:12.147Z,10.37
2023-05-21T05:43:57.087Z,10.53
2023-05-21T05:46:42.674Z,10.61
2023-05-21T05:49:27.851Z,10.68
2023-05-21T05:52:12.926Z,10.71
2023-05-21T05:54:58.288Z,10.86
2023-05-21T05:57:44.947Z,10.97
2023-05-21T06:00:30.679Z,11.04
2023-05-21T06:03:16.094Z,11.11
2023-05-21T06:06:01.425Z,11.18
2023-05-21T06:08:46.885Z,11.16
2023-05-21T06:11:31.758Z,11.35
2023-05-21T06:14:17.047Z,11.38
2023-05-21T06:17:02.019Z,11.45
2023-05-21T06:19:47.461Z,11.57
2023-05-21T06:22:32.409Z,11.64
2023-05-21T06:25:18.284Z,11.75
2023-05-21T06:28:03.557Z,11.90
2023-05-21T06:30:48.635Z,11.98
2023-05-21T06:33:33.723Z,12.08
2023-05-21T06:36:19.096Z,12.20
2023-05-21T06:39:03.991Z,12.20
2023-05-21T06:41:48.987Z,12.30
2023-05-21T06:44:34.143Z,12.43
2023-05-21T06:47:19.154Z,12.50
2023-05-21T06:50:04.490Z,12.54
2023-05-21T06:52:49.524Z,12.67
2023-05-21T06:55:34.606Z,12.71
2023-05-21T06:58:19.979Z,12.79
2023-05-21T07:01:05.952Z,12.90
2023-05-21T07:03:51.216Z,12.92
2023-05-21T07:06:37.871Z,13.13
2023-05-21T07:09:23.052Z,13.20
2023-05-21T07:12:08.389Z,13.36
2023-05-21T07:14:53.316Z,13.42
2023-05-21T07:17:38.334Z,13.42
2023-05-21T07:20:23.903Z,13.57
2023-05-21T07:23:08.735Z,13.64
2023-05-21T07:25:54.420Z,13.66
2023-05-21T07:28:39.618Z,13.77
2023-05-21T07:31:25.386Z,13.89
2023-05-21T07:34:10.491Z,13.97
2023-05-21T07:36:55.713Z,14.09
2023-05-21T07:39:40.939Z,14.12
2023-05-21T07:42:26.776Z,14.19
2023-05-21T07:45:11.661Z,14.38
2023-05-21T07:47:56.709Z,14.40
2023-05-21T07:50:42.170Z,14.48
2023-05-21T07:53:27.474Z,14.58
2023-05-21T07:56:12.561Z,14.73
2023-05-21T07:58:57.648Z,14.87
2023-05-21T08:01:43.437Z,14.95
2023-05-21T08:04:28.658Z,14.97
2023-05-21T08:07:16.925Z,15.17
2023-05-21T08:10:02.929Z,15.31
2023-05-21T08:12:48.008Z,15.40
2023-05-21T08:15:32.902Z,15.44
2023-05-21T08:18:18.523Z,15.38
2023-05-21T08:21:04.495Z,15.48
2023-05-21T08:23:52.052Z,15.54
2023-05-21T08:26:37.159Z,15.72
2023-05-21T08:29:22.742Z,15.81
2023-05-21T08:32:09.708Z,15.95
2023-05-21T08:34:54.866Z,15.95
2023-05-21T08:37:39.950Z,16.10
2023-05-21T08:40:25.005Z,16.25
2023-05-21T08:43:14.544Z,16.25
2023-05-21T08:46:01.672Z,16.32
2023-05-21T08:48:47.080Z,16.42
2023-05-21T08:51:32.283Z,16.41
2023-05-21T08:54:17.491Z,16.48
2023-05-21T08:57:04.000Z,16.54
2023-05-21T08:59:49.961Z,16.58
2023-05-21T09:02:40.438Z,16.59
2023-05-21T09:05:26.969Z,16.54
2023-05-21T09:08:18.161Z,16.53
2023-05-21T09:11:03.710Z,16.66
2023-05-21T09:13:50.099Z,16.84
2023-05-21T09:16:35.323Z,16.91
2023-05-21T09:19:22.323Z,16.91
2023-05-21T09:22:07.476Z,17.05
2023-05-21T09:24:52.775Z,17.26
2023-05-21T09:27:38.338Z,17.41
2023-05-21T09:30:26.729Z,17.69
2023-05-21T09:33:13.150Z,17.81
2023-05-21T09:35:58.627Z,17.89
2023-05-21T09:38:45.188Z,18.08
2023-05-21T09:41:35.718Z,17.98
2023-05-21T09:44:20.769Z,18.11
2023-05-21T09:47:05.890Z,18.19
2023-05-21T09:49:50.943Z,18.00
2023-05-21T09:52:37.268Z,18.14
2023-05-21T09:55:23.504Z,18.37
2023-05-21T09:58:10.771Z,18.68
2023-05-21T10:00:56.105Z,18.82
2023-05-21T10:03:44.365Z,18.44
2023-05-21T10:06:33.658Z,18.41
2023-05-21T10:09:20.086Z,18.86
2023-05-21T10:12:06.276Z,18.80
2023-05-21T10:14:59.619Z,18.72
2023-05-21T10:17:46.040Z,18.46
2023-05-21T10:20:31.877Z,18.40
2023-05-21T10:23:18.444Z,18.30
2023-05-21T10:26:04.121Z,18.38
2023-05-21T10:28:51.252Z,18.37
2023-05-21T10:31:38.743Z,18.35
2023-05-21T10:34:24.956Z,18.45
2023-05-21T10:37:12.907Z,18.47
2023-05-21T10:39:57.880Z,18.51
2023-05-21T10:43:19.104Z,18.54
2023-05-21T10:46:27.923Z,18.44
2023-05-21T10:49:50.926Z,18.58
2023-05-21T10:52:57.930Z,19.13
2023-05-21T10:55:58.364Z,19.38
2023-05-21T10:59:31.221Z,19.01
2023-05-21T11:02:19.122Z,18.95
2023-05-21T11:05:04.937Z,18.97
2023-05-21T11:07:53.600Z,19.07
2023-05-21T11:10:40.764Z,19.05
2023-05-21T11:13:27.174Z,19.04
2023-05-21T11:16:16.486Z,18.79
2023-05-21T11:19:02.364Z,18.66
2023-05-21T11:21:51.334Z,18.74
2023-05-21T11:24:41.321Z,18.86
2023-05-21T11:27:42.461Z,18.90
2023-05-21T11:30:27.476Z,18.80
2023-05-21T11:33:13.718Z,19.04
2023-05-21T11:36:03.453Z,19.10
2023-05-21T11:39:09.404Z,19.10
2023-05-21T11:41:59.792Z,19.29
2023-05-21T11:44:48.299Z,19.19
2023-05-21T11:47:33.404Z,19.14
2023-05-21T11:50:19.199Z,18.95
2023-05-21T11:53:04.674Z,18.74
2023-05-21T11:55:50.694Z,18.80
2023-05-21T11:58:35.884Z,18.85
2023-05-21T12:01:24.875Z,18.84
2023-05-21T12:04:13.498Z,18.87
2023-05-21T12:06:58.955Z,18.93
2023-05-21T12:09:49.724Z,18.88
2023-05-21T12:12:49.945Z,18.82
2023-05-21T12:15:39.585Z,18.86
2023-05-21T12:18:25.356Z,18.99
2023-05-21T12:21:12.386Z,18.90
2023-05-21T12:23:58.020Z,18.77
2023-05-21T12:26:44.523Z,18.66
2023-05-21T12:29:35.904Z,18.76
2023-05-21T12:32:21.552Z,18.80
2023-05-21T12:35:06.974Z,18.76
2023-05-21T12:37:52.776Z,18.67
2023-05-21T12:40:38.674Z,18.73
2023-05-21T12:43:24.772Z,18.66
2023-05-21T12:46:17.383Z,18.67
2023-05-21T12:49:02.522Z,18.68
2023-05-21T12:51:48.039Z,18.81
2023-05-21T12:54:35.344Z,18.71
2023-05-21T12:57:25.828Z,18.61
2023-05-21T13:00:11.993Z,18.62
2023-05-21T13:02:59.704Z,18.40
2023-05-21T13:05:44.796Z,18.20
2023-05-21T13:08:30.080Z,18.12
2023-05-21T13:11:15.369Z,17.98
2023-05-21T13:14:00.751Z,17.97
2023-05-21T13:16:47.439Z,17.84
2023-05-21T13:19:32.616Z,17.96
2023-05-21T13:22:17.751Z,18.06
2023-05-21T13:25:03.141Z,18.11
2023-05-21T13:27:50.057Z,18.25
2023-05-21T13:30:35.852Z,18.42
2023-05-21T13:33:21.533Z,18.39
2023-05-21T13:36:06.960Z,18.32
2023-05-21T13:38:51.804Z,18.43
2023-05-21T13:41:36.872Z,18.48
2023-05-21T13:44:22.153Z,18.36
2023-05-21T13:47:10.179Z,18.43
2023-05-21T13:49:55.506Z,18.53
2023-05-21T13:52:40.957Z,18.39
2023-05-21T13:55:26.087Z,18.47
2023-05-21T13:58:11.088Z,18.68
2023-05-21T14:00:56.378Z,18.78
2023-05-21T14:03:41.647Z,18.66
2023-05-21T14:06:26.636Z,18.52
2023-05-21T14:09:12.085Z,18.46
2023-05-21T14:11:58.701Z,18.40
2023-05-21T14:14:44.050Z,18.46
2023-05-21T14:17:29.186Z,18.38
2023-05-21T14:20:14.306Z,18.40
2023-05-21T14:22:59.689Z,18.40
2023-05-21T14:25:44.955Z,18.46
2023-05-21T14:28:30.350Z,18.44
2023-05-21T14:31:15.412Z,18.45
2023-05-21T14:34:02.739Z,18.46
2023-05-21T14:36:47.806Z,18.41
2023-05-21T14:39:32.703Z,18.48
2023-05-21T14:42:17.736Z,18.46
2023-05-21T14:45:17.692Z,18.35
2023-05-21T14:48:08.470Z,18.25
2023-05-21T14:50:53.934Z,18.27
2023-05-21T14:53:39.198Z,18.19
2023-05-21T14:56:27.206Z,18.11
2023-05-21T14:59:12.781Z,18.07
2023-05-21T15:01:57.999Z,18.14
2023-05-21T15:04:43.026Z,18.11
2023-05-21T15:07:28.055Z,18.14
2023-05-21T15:10:13.017Z,18.05
2023-05-21T15:12:59.548Z,17.96
2023-05-21T15:15:44.703Z,17.94
2023-05-21T15:18:29.827Z,18.02
2023-05-21T15:21:14.871Z,18.05
2023-05-21T15:23:59.835Z,18.20
2023-05-21T15:26:44.762Z,18.24
2023-05-21T15:29:29.769Z,18.29
2023-05-21T15:32:14.747Z,18.29
2023-05-21T15:34:59.787Z,18.25
2023-05-21T15:37:46.148Z,18.13
2023-05-21T15:40:32.398Z,18.05
2023-05-21T15:43:17.464Z,18.10
2023-05-21T15:46:02.468Z,18.10
2023-05-21T15:48:47.460Z,18.05
2023-05-21T15:51:32.617Z,18.02
2023-05-21T15:54:17.970Z,18.06
2023-05-21T15:57:03.471Z,17.98
2023-05-21T15:59:50.316Z,18.15
2023-05-21T16:02:35.941Z,18.15
2023-05-21T16:05:21.251Z,18.12
2023-05-21T16:08:06.412Z,18.12
2023-05-21T16:10:51.601Z,18.18
2023-05-21T16:13:36.494Z,18.07
2023-05-21T16:16:24.527Z,18.19
2023-05-21T16:19:10.169Z,18.17
2023-05-21T16:21:55.351Z,18.01
2023-05-21T16:24:40.553Z,17.99
2023-05-21T16:27:25.770Z,18.03
2023-05-21T16:30:12.040Z,17.89
2023-05-21T16:32:57.434Z,18.01
2023-05-21T16:35:42.698Z,18.00
2023-05-21T16:38:27.695Z,18.03
2023-05-21T16:41:12.553Z,17.87
2023-05-21T16:43:57.804Z,17.89
2023-05-21T16:46:42.751Z,17.74
2023-05-21T16:49:27.906Z,17.74
2023-05-21T16:52:13.194Z,17.81
2023-05-21T16:54:58.066Z,17.79
2023-05-21T16:57:43.169Z,17.66
2023-05-21T17:00:28.109Z,17.76
2023-05-21T17:03:13.509Z,17.76
2023-05-21T17:05:58.751Z,17.70
2023-05-21T17:08:43.918Z,17.64
2023-05-21T17:11:29.230Z,17.55
2023-05-21T17:14:23.317Z,17.53
2023-05-21T17:17:18.308Z,17.53
2023-05-21T17:20:04.264Z,17.57
2023-05-21T17:22:49.338Z,17.53
2023-05-21T17:25:35.010Z,17.47
2023-05-21T17:28:20.181Z,17.44
2023-05-21T17:31:08.168Z,17.44
2023-05-21T17:33:56.172Z,17.41
2023-05-21T17:36:40.996Z,17.39
2023-05-21T17:39:26.102Z,17.38
2023-05-21T17:42:11.287Z,17.29
2023-05-21T17:44:56.291Z,17.22
2023-05-21T17:47:41.409Z,17.31
2023-05-21T17:50:26.639Z,17.35
2023-05-21T17:53:12.926Z,17.34
2023-05-21T17:55:58.284Z,17.30
2023-05-21T17:58:43.529Z,17.27
2023-05-21T18:01:28.539Z,17.30
2023-05-21T18:04:13.946Z,17.31
2023-05-21T18:06:59.069Z,17.34
2023-05-21T18:09:43.980Z,17.28
2023-05-21T18:12:28.999Z,17.30
2023-05-21T18:15:14.839Z,17.11
2023-05-21T18:18:00.069Z,17.07
2023-05-21T18:20:45.210Z,17.08
2023-05-21T18:23:31.224Z,17.07
2023-05-21T18:26:16.444Z,17.05
2023-05-21T18:29:01.297Z,17.03
2023-05-21T18:31:46.338Z,17.02
2023-05-21T18:34:31.595Z,16.98
2023-05-21T18:37:16.958Z,16.97
2023-05-21T18:40:01.929Z,16.94
2023-05-21T18:42:46.920Z,16.93
2023-05-21T18:45:32.898Z,16.86
2023-05-21T18:48:17.773Z,16.75
2023-05-21T18:51:02.864Z,16.72
2023-05-21T18:53:48.073Z,16.62
2023-05-21T18:56:33.023Z,16.64
2023-05-21T18:59:18.450Z,16.71
2023-05-21T19:02:04.820Z,16.88
2023-05-21T19:04:50.172Z,16.74
2023-05-21T19:07:36.345Z,16.64
2023-05-21T19:10:21.302Z,16.55
2023-05-21T19:13:06.619Z,16.46
2023-05-21T19:15:51.896Z,16.38
2023-05-21T19:18:37.184Z,16.32
2023-05-21T19:21:23.291Z,16.18
2023-05-21T19:24:08.296Z,16.19
2023-05-21T19:26:53.620Z,16.15
2023-05-21T19:29:38.800Z,16.14
2023-05-21T19:32:23.976Z,16.03
2023-05-21T19:35:09.252Z,15.98
2023-05-21T19:37:58.809Z,15.88
2023-05-21T19:40:44.389Z,15.84
2023-05-21T19:43:29.585Z,15.78
2023-05-21T19:46:17.365Z,15.69
2023-05-21T19:49:05.801Z,15.63
2023-05-21T19:51:54.497Z,15.56
2023-05-21T19:54:39.378Z,15.48
2023-05-21T19:57:24.387Z,15.39
2023-05-21T20:00:10.318Z,15.32
2023-05-21T20:02:56.151Z,15.21
2023-05-21T20:05:41.370Z,15.14
2023-05-21T20:08:26.599Z,15.07
2023-05-21T20:11:12.404Z,15.06
2023-05-21T20:13:57.309Z,15.00
2023-05-21T20:16:42.489Z,14.94
2023-05-21T20:19:30.001Z,14.78
2023-05-21T20:22:15.961Z,14.78
2023-05-21T20:25:02.738Z,14.75
2023-05-21T20:27:47.589Z,14.70
2023-05-21T20:30:34.377Z,14.65
2023-05-21T20:33:20.328Z,14.52
2023-05-21T20:36:05.454Z,14.46
2023-05-21T20:38:50.742Z,14.43
2023-05-21T20:41:37.716Z,14.39
2023-05-21T20:44:22.798Z,14.37
2023-05-21T20:47:08.080Z,14.21
2023-05-21T20:49:53.667Z,14.32
2023-05-21T20:52:38.964Z,14.26
2023-05-21T20:55:24.103Z,14.20
2023-05-21T20:58:09.039Z,14.21
2023-05-21T21:00:55.146Z,14.13
2023-05-21T21:03:41.427Z,14.00
2023-05-21T21:06:30.059Z,13.80
2023-05-21T21:09:14.965Z,13.70
2023-05-21T21:12:06.252Z,13.62
2023-05-21T21:14:57.021Z,13.41
2023-05-21T21:17:42.006Z,13.49
2023-05-21T21:20:26.938Z,13.38
2023-05-21T21:23:11.937Z,13.30
2023-05-21T21:25:56.886Z,13.23
2023-05-21T21:28:42.031Z,13.20
2023-05-21T21:31:27.056Z,13.16
2023-05-21T21:34:12.360Z,13.21
2023-05-21T21:36:57.847Z,13.07
2023-05-21T21:39:42.862Z,13.16
2023-05-21T21:42:27.735Z,13.17
2023-05-21T21:45:13.206Z,13.07
2023-05-21T21:47:58.220Z,13.10
2023-05-21T21:50:43.372Z,13.03
2023-05-21T21:53:28.278Z,12.92
2023-05-21T21:56:13.102Z,12.91
2023-05-21T21:58:58.089Z,12.91
2023-05-21T22:01:43.282Z,12.82
2023-05-21T22:04:28.462Z,12.80
2023-05-21T22:07:17.685Z,12.75
2023-05-21T22:10:02.666Z,12.71
2023-05-21T22:12:47.871Z,12.61
2023-05-21T22:15:33.291Z,12.56
2023-05-21T22:18:25.342Z,12.53
2023-05-21T22:21:21.576Z,12.54
2023-05-21T22:24:09.554Z,12.43
2023-05-21T22:27:00.461Z,12.40
2023-05-21T22:29:45.918Z,12.34
2023-05-21T22:32:31.074Z,12.33
2023-05-21T22:35:16.633Z,12.26
2023-05-21T22:38:02.336Z,12.33
2023-05-21T22:40:47.252Z,12.26
2023-05-21T22:43:34.728Z,12.29
2023-05-21T22:46:20.512Z,12.19
2023-05-21T22:49:06.236Z,12.09
2023-05-21T22:51:52.568Z,12.13
2023-05-21T22:54:37.473Z,12.09
2023-05-21T22:57:22.763Z,12.07
2023-05-21T23:00:09.661Z,12.05
2023-05-21T23:02:55.013Z,12.00
2023-05-21T23:05:40.888Z,11.97
2023-05-21T23:08:26.751Z,11.95
2023-05-21T23:11:11.638Z,11.92
2023-05-21T23:13:56.518Z,11.88
2023-05-21T23:16:44.362Z,11.86
2023-05-21T23:19:29.769Z,11.85
2023-05-21T23:22:15.075Z,11.78
2023-05-21T23:25:00.438Z,11.62
2023-05-21T23:27:45.889Z,11.67
2023-05-21T23:30:31.038Z,11.64
2023-05-21T23:33:16.019Z,11.62
2023-05-21T23:36:01.318Z,11.59
2023-05-21T23:38:46.341Z,11.56
2023-05-21T23:41:31.614Z,11.57
2023-05-21T23:44:16.840Z,11.54
2023-05-21T23:47:02.070Z,11.38
2023-05-21T23:49:46.834Z,11.47
2023-05-21T23:52:31.770Z,11.39
2023-05-21T23:55:16.923Z,11.46
2023-05-21T23:58:03.808Z,11.34
